createdAt,value
2017-10-05T00:00:05.172Z,14.1
2017-10-05T00:01:14.001Z,14.12
2017-10-05T00:02:23.165Z,14.18
2017-10-05T00:03:31.993Z,14.15
2017-10-05T00:04:40.829Z,14.12
2017-10-05T00:05:49.662Z,14.14
2017-10-05T00:06:58.500Z,14.06
2017-10-05T00:08:07.335Z,14.14
2017-10-05T00:09:16.171Z,14.09
2017-10-05T00:10:25.327Z,14.18
2017-10-05T00:11:34.162Z,14.12
2017-10-05T00:12:42.996Z,14.18
2017-10-05T00:13:51.832Z,14.21
2017-10-05T00:15:00.668Z,14.27
2017-10-05T00:16:09.501Z,14.24
2017-10-05T00:17:18.334Z,14.18
2017-10-05T00:18:27.168Z,14.21
2017-10-05T00:19:36.003Z,14.24
2017-10-05T00:20:44.841Z,14.14
2017-10-05T00:21:53.676Z,14.1
2017-10-05T00:23:02.512Z,14.1
2017-10-05T00:24:11.345Z,14.12
2017-10-05T00:25:20.510Z,14.12
2017-10-05T00:26:29.346Z,14.07
2017-10-05T00:27:38.182Z,14.1
2017-10-05T00:28:47.014Z,14.06
2017-10-05T00:29:55.847Z,14.18
2017-10-05T00:31:04.684Z,14.15
2017-10-05T00:32:13.518Z,14.15
2017-10-05T00:33:22.352Z,14.1
2017-10-05T00:34:31.187Z,14.09
2017-10-05T00:35:40.345Z,14.06
2017-10-05T00:36:49.178Z,14.17
2017-10-05T00:37:58.009Z,14.17
2017-10-05T00:39:06.845Z,14.09
2017-10-05T00:40:15.682Z,14.07
2017-10-05T00:41:24.515Z,14.06
2017-10-05T00:42:33.347Z,14.1
2017-10-05T00:43:42.184Z,14.1
2017-10-05T00:44:51.016Z,14.15
2017-10-05T00:45:59.849Z,14.07
2017-10-05T00:47:08.689Z,14.14
2017-10-05T00:48:17.520Z,14.1
2017-10-05T00:49:26.676Z,14.15
2017-10-05T00:50:35.516Z,14.1
2017-10-05T00:51:44.347Z,14.2
2017-10-05T00:52:53.186Z,14.2
2017-10-05T00:54:02.019Z,14.15
2017-10-05T00:55:10.853Z,14.1
2017-10-05T00:56:19.684Z,14.15
2017-10-05T00:57:28.524Z,14.14
2017-10-05T00:58:37.374Z,14.2
2017-10-05T00:59:46.534Z,14.1
2017-10-05T01:00:55.373Z,14.18
2017-10-05T01:02:04.209Z,14.21
2017-10-05T01:03:13.036Z,14.21
2017-10-05T01:04:21.869Z,14.24
2017-10-05T01:05:30.700Z,14.1
2017-10-05T01:06:39.539Z,14.1
2017-10-05T01:07:48.374Z,14.1
2017-10-05T01:08:57.203Z,14.17
2017-10-05T01:10:06.033Z,14.1
2017-10-05T01:11:14.864Z,14.06
2017-10-05T01:12:23.703Z,14.04
2017-10-05T01:13:32.537Z,14.1
2017-10-05T01:14:41.375Z,14.06
2017-10-05T01:15:50.205Z,14.1
2017-10-05T01:16:59.360Z,14.12
2017-10-05T01:18:08.199Z,14.06
2017-10-05T01:19:17.029Z,14.02
2017-10-05T01:20:25.861Z,14.12
2017-10-05T01:21:34.692Z,14.17
2017-10-05T01:22:43.524Z,14.07
2017-10-05T01:23:52.357Z,14.06
2017-10-05T01:25:01.195Z,14.14
2017-10-05T01:26:10.032Z,14.07
2017-10-05T01:27:18.863Z,14.09
2017-10-05T01:28:27.697Z,14.12
2017-10-05T01:29:36.529Z,14.14
2017-10-05T01:30:45.361Z,14.07
2017-10-05T01:31:54.198Z,14.07
2017-10-05T01:33:03.033Z,14
2017-10-05T01:34:11.870Z,14.07
2017-10-05T01:35:20.703Z,13.92
2017-10-05T01:36:29.541Z,14.04
2017-10-05T01:37:38.372Z,13.89
2017-10-05T01:38:47.206Z,13.92
2017-10-05T01:39:56.037Z,13.89
2017-10-05T01:41:04.871Z,13.92
2017-10-05T01:42:13.710Z,13.97
2017-10-05T01:43:22.542Z,13.95
2017-10-05T01:44:31.375Z,13.92
2017-10-05T01:45:40.213Z,13.87
2017-10-05T01:46:49.048Z,14.02
2017-10-05T01:47:57.885Z,13.97
2017-10-05T01:49:06.719Z,14.04
2017-10-05T01:50:15.557Z,14.04
2017-10-05T01:51:24.386Z,14.02
2017-10-05T01:52:33.220Z,13.95
2017-10-05T01:53:42.058Z,14.03
2017-10-05T01:54:50.891Z,13.95
2017-10-05T01:55:59.727Z,13.96
2017-10-05T01:57:08.561Z,14.02
2017-10-05T01:58:17.394Z,14.04
2017-10-05T01:59:26.227Z,14
2017-10-05T02:00:35.059Z,14.03
2017-10-05T02:01:43.896Z,14.04
2017-10-05T02:02:53.058Z,14.02
2017-10-05T02:04:01.894Z,14.04
2017-10-05T02:05:10.722Z,14.06
2017-10-05T02:06:19.558Z,13.99
2017-10-05T02:07:28.388Z,13.92
2017-10-05T02:08:37.225Z,13.92
2017-10-05T02:09:46.379Z,13.96
2017-10-05T02:10:55.215Z,13.95
2017-10-05T02:12:04.052Z,13.92
2017-10-05T02:13:13.212Z,13.87
2017-10-05T02:14:22.047Z,13.82
2017-10-05T02:15:30.880Z,13.82
2017-10-05T02:16:39.715Z,13.82
2017-10-05T02:17:48.548Z,13.84
2017-10-05T02:18:57.384Z,13.82
2017-10-05T02:20:06.217Z,13.79
2017-10-05T02:21:15.048Z,13.77
2017-10-05T02:22:23.888Z,13.77
2017-10-05T02:23:32.719Z,13.79
2017-10-05T02:24:41.556Z,13.82
2017-10-05T02:25:50.709Z,13.84
2017-10-05T02:26:59.546Z,13.82
2017-10-05T02:28:08.374Z,13.87
2017-10-05T02:29:17.212Z,13.87
2017-10-05T02:30:26.048Z,13.89
2017-10-05T02:31:34.881Z,13.81
2017-10-05T02:32:43.712Z,13.85
2017-10-05T02:33:52.550Z,13.82
2017-10-05T02:35:01.385Z,13.85
2017-10-05T02:36:10.228Z,13.84
2017-10-05T02:37:19.059Z,13.79
2017-10-05T02:38:28.224Z,13.85
2017-10-05T02:39:37.049Z,13.84
2017-10-05T02:40:45.888Z,13.84
2017-10-05T02:41:54.721Z,13.85
2017-10-05T02:43:03.566Z,13.82
2017-10-05T02:44:12.718Z,13.82
2017-10-05T02:45:21.554Z,13.78
2017-10-05T02:46:30.384Z,13.88
2017-10-05T02:47:39.223Z,13.77
2017-10-05T02:48:48.382Z,13.82
2017-10-05T02:49:57.546Z,13.82
2017-10-05T02:51:06.384Z,13.78
2017-10-05T02:52:15.216Z,13.82
2017-10-05T02:53:24.054Z,13.81
2017-10-05T02:54:33.216Z,13.78
2017-10-05T02:55:42.053Z,13.78
2017-10-05T02:56:50.885Z,13.77
2017-10-05T02:57:59.720Z,13.64
2017-10-05T02:59:08.552Z,13.59
2017-10-05T03:00:17.387Z,13.71
2017-10-05T03:01:26.227Z,13.67
2017-10-05T03:02:35.060Z,13.64
2017-10-05T03:03:43.892Z,13.54
2017-10-05T03:04:52.727Z,13.63
2017-10-05T03:06:01.556Z,13.55
2017-10-05T03:07:10.388Z,13.6
2017-10-05T03:08:19.225Z,13.59
2017-10-05T03:09:28.061Z,13.6
2017-10-05T03:10:36.895Z,13.55
2017-10-05T03:11:45.732Z,13.55
2017-10-05T03:12:54.565Z,13.59
2017-10-05T03:14:03.399Z,13.54
2017-10-05T03:15:12.234Z,13.49
2017-10-05T03:16:21.064Z,13.42
2017-10-05T03:17:29.904Z,13.46
2017-10-05T03:18:38.737Z,13.42
2017-10-05T03:19:47.569Z,13.44
2017-10-05T03:20:56.399Z,13.29
2017-10-05T03:22:05.561Z,13.25
2017-10-05T03:23:14.390Z,13.29
2017-10-05T03:24:23.222Z,13.19
2017-10-05T03:25:32.055Z,13.25
2017-10-05T03:26:40.893Z,13.22
2017-10-05T03:27:49.731Z,13.19
2017-10-05T03:28:58.562Z,13.17
2017-10-05T03:30:07.403Z,13.23
2017-10-05T03:31:16.233Z,13.17
2017-10-05T03:32:25.069Z,13.12
2017-10-05T03:33:33.899Z,13.14
2017-10-05T03:34:42.729Z,13.11
2017-10-05T03:35:51.565Z,13.04
2017-10-05T03:37:00.404Z,13.07
2017-10-05T03:38:09.237Z,13.03
2017-10-05T03:39:18.388Z,13
2017-10-05T03:40:27.221Z,12.95
2017-10-05T03:41:36.372Z,13
2017-10-05T03:42:45.211Z,13.01
2017-10-05T03:43:54.043Z,13.04
2017-10-05T03:45:02.871Z,13.01
2017-10-05T03:46:12.027Z,12.93
2017-10-05T03:47:20.862Z,12.95
2017-10-05T03:48:29.694Z,12.96
2017-10-05T03:49:38.527Z,12.95
2017-10-05T03:50:47.363Z,12.87
2017-10-05T03:51:56.190Z,12.89
2017-10-05T03:53:05.022Z,12.83
2017-10-05T03:54:14.180Z,12.77
2017-10-05T03:55:23.014Z,12.79
2017-10-05T03:56:31.902Z,12.79
2017-10-05T03:57:40.732Z,12.82
2017-10-05T03:58:49.571Z,12.87
2017-10-05T03:59:58.396Z,12.87
2017-10-05T04:01:07.232Z,12.85
2017-10-05T04:02:16.061Z,12.74
2017-10-05T04:03:24.896Z,12.75
2017-10-05T04:04:33.733Z,12.72
2017-10-05T04:05:42.563Z,12.68
2017-10-05T04:06:51.390Z,12.65
2017-10-05T04:08:00.218Z,12.7
2017-10-05T04:09:09.056Z,12.7
2017-10-05T04:10:18.220Z,12.57
2017-10-05T04:11:27.054Z,12.6
2017-10-05T04:12:35.883Z,12.57
2017-10-05T04:13:44.719Z,12.46
2017-10-05T04:14:53.557Z,12.46
2017-10-05T04:16:02.389Z,12.5
2017-10-05T04:17:11.221Z,12.5
2017-10-05T04:18:20.050Z,12.54
2017-10-05T04:19:28.882Z,12.54
2017-10-05T04:20:37.713Z,12.56
2017-10-05T04:21:46.553Z,12.52
2017-10-05T04:22:55.388Z,12.5
2017-10-05T04:24:04.217Z,12.54
2017-10-05T04:25:13.052Z,12.47
2017-10-05T04:26:22.207Z,12.5
2017-10-05T04:27:31.040Z,12.47
2017-10-05T04:28:39.874Z,12.42
2017-10-05T04:29:48.706Z,12.41
2017-10-05T04:30:57.547Z,12.47
2017-10-05T04:32:06.378Z,12.38
2017-10-05T04:33:15.213Z,12.5
2017-10-05T04:34:24.041Z,12.49
2017-10-05T04:35:32.872Z,12.45
2017-10-05T04:36:41.705Z,12.41
2017-10-05T04:37:50.536Z,12.45
2017-10-05T04:38:59.374Z,12.45
2017-10-05T04:40:08.206Z,12.39
2017-10-05T04:41:17.037Z,12.34
2017-10-05T04:42:25.866Z,12.28
2017-10-05T04:43:34.706Z,12.37
2017-10-05T04:44:43.540Z,12.35
2017-10-05T04:45:52.378Z,12.41
2017-10-05T04:47:01.204Z,12.32
2017-10-05T04:48:10.034Z,12.28
2017-10-05T04:49:18.872Z,12.34
2017-10-05T04:50:28.039Z,12.32
2017-10-05T04:51:36.872Z,12.32
2017-10-05T04:52:45.733Z,12.38
2017-10-05T04:53:54.533Z,12.31
2017-10-05T04:55:03.363Z,12.32
2017-10-05T04:56:12.548Z,12.34
2017-10-05T04:57:21.699Z,12.19
2017-10-05T04:58:30.532Z,12.34
2017-10-05T04:59:39.365Z,12.29
2017-10-05T05:00:48.218Z,12.27
2017-10-05T05:01:57.029Z,12.28
2017-10-05T05:03:05.859Z,12.37
2017-10-05T05:04:14.695Z,12.34
2017-10-05T05:05:23.527Z,12.24
2017-10-05T05:06:32.359Z,12.32
2017-10-05T05:07:41.190Z,12.34
2017-10-05T05:08:50.026Z,12.32
2017-10-05T05:09:58.858Z,12.32
2017-10-05T05:11:07.694Z,12.38
2017-10-05T05:12:16.525Z,12.31
2017-10-05T05:13:25.354Z,12.41
2017-10-05T05:14:34.185Z,12.32
2017-10-05T05:15:43.024Z,12.23
2017-10-05T05:16:51.855Z,12.28
2017-10-05T05:18:00.689Z,12.14
2017-10-05T05:19:09.519Z,12.21
2017-10-05T05:20:18.353Z,12.21
2017-10-05T05:21:27.506Z,12.34
2017-10-05T05:22:36.337Z,12.28
2017-10-05T05:23:45.168Z,12.31
2017-10-05T05:24:54.006Z,12.31
2017-10-05T05:26:03.151Z,12.31
2017-10-05T05:27:11.987Z,12.27
2017-10-05T05:28:20.822Z,12.34
2017-10-05T05:29:29.654Z,12.34
2017-10-05T05:30:38.489Z,12.27
2017-10-05T05:31:47.317Z,12.24
2017-10-05T05:32:56.152Z,12.28
2017-10-05T05:34:04.985Z,12.23
2017-10-05T05:35:13.822Z,12.23
2017-10-05T05:36:22.974Z,12.28
2017-10-05T05:37:31.806Z,12.17
2017-10-05T05:38:40.639Z,12.19
2017-10-05T05:39:49.467Z,12.16
2017-10-05T05:40:58.305Z,12.23
2017-10-05T05:42:07.457Z,12.17
2017-10-05T05:43:16.287Z,12.19
2017-10-05T05:44:25.118Z,12.17
2017-10-05T05:45:33.954Z,12.12
2017-10-05T05:46:42.789Z,12.12
2017-10-05T05:47:51.615Z,12.1
2017-10-05T05:49:00.450Z,12.09
2017-10-05T05:50:09.283Z,12.07
2017-10-05T05:51:18.114Z,11.96
2017-10-05T05:52:26.940Z,11.99
2017-10-05T05:53:35.775Z,11.99
2017-10-05T05:54:44.606Z,12.04
2017-10-05T05:55:53.451Z,12.04
2017-10-05T05:57:02.267Z,12.07
2017-10-05T05:58:11.098Z,11.98
2017-10-05T05:59:19.932Z,11.99
2017-10-05T06:00:28.769Z,11.96
2017-10-05T06:01:37.923Z,11.98
2017-10-05T06:02:46.754Z,11.98
2017-10-05T06:03:55.580Z,11.96
2017-10-05T06:05:04.415Z,12.01
2017-10-05T06:06:13.245Z,11.95
2017-10-05T06:07:22.079Z,12.01
2017-10-05T06:08:30.912Z,11.96
2017-10-05T06:09:39.740Z,11.98
2017-10-05T06:10:48.571Z,11.96
2017-10-05T06:11:57.405Z,11.96
2017-10-05T06:13:06.238Z,11.94
2017-10-05T06:14:15.063Z,11.94
2017-10-05T06:15:23.901Z,11.96
2017-10-05T06:16:32.741Z,11.96
2017-10-05T06:17:41.562Z,11.96
2017-10-05T06:18:50.396Z,11.86
2017-10-05T06:19:59.226Z,11.86
2017-10-05T06:21:08.062Z,11.83
2017-10-05T06:22:16.895Z,11.91
2017-10-05T06:23:26.061Z,11.94
2017-10-05T06:24:34.887Z,11.98
2017-10-05T06:25:44.039Z,11.99
2017-10-05T06:26:52.873Z,11.94
2017-10-05T06:28:01.702Z,12.07
2017-10-05T06:29:10.540Z,11.98
2017-10-05T06:30:19.372Z,11.95
2017-10-05T06:31:28.532Z,11.96
2017-10-05T06:32:37.362Z,11.96
2017-10-05T06:33:46.199Z,12.02
2017-10-05T06:34:55.028Z,11.96
2017-10-05T06:36:03.871Z,11.95
2017-10-05T06:37:12.694Z,11.99
2017-10-05T06:38:21.522Z,11.96
2017-10-05T06:39:30.361Z,11.99
2017-10-05T06:40:39.191Z,12.12
2017-10-05T06:41:48.020Z,12.13
2017-10-05T06:42:56.850Z,12.01
2017-10-05T06:44:05.680Z,11.95
2017-10-05T06:45:14.512Z,12.02
2017-10-05T06:46:23.344Z,12.16
2017-10-05T06:47:32.176Z,12.12
2017-10-05T06:48:41.001Z,12.1
2017-10-05T06:49:49.834Z,12.07
2017-10-05T06:50:58.666Z,12.09
2017-10-05T06:52:07.497Z,12.07
2017-10-05T06:53:16.333Z,12.12
2017-10-05T06:54:25.166Z,12.19
2017-10-05T06:55:33.993Z,12.21
2017-10-05T06:56:42.820Z,12.1
2017-10-05T06:57:51.653Z,12.13
2017-10-05T06:59:00.487Z,12.07
2017-10-05T07:00:09.319Z,12.1
2017-10-05T07:01:18.153Z,11.95
2017-10-05T07:02:26.985Z,12.14
2017-10-05T07:03:35.812Z,12.05
2017-10-05T07:04:45.004Z,12.01
2017-10-05T07:05:53.831Z,11.94
2017-10-05T07:07:02.665Z,11.91
2017-10-05T07:08:11.500Z,11.99
2017-10-05T07:09:20.652Z,11.98
2017-10-05T07:10:29.490Z,11.94
2017-10-05T07:11:38.327Z,11.99
2017-10-05T07:12:47.155Z,12.02
2017-10-05T07:13:55.988Z,12.02
2017-10-05T07:15:04.819Z,12.05
2017-10-05T07:16:13.649Z,11.94
2017-10-05T07:17:22.475Z,11.96
2017-10-05T07:18:31.636Z,11.94
2017-10-05T07:19:40.462Z,11.95
2017-10-05T07:20:49.300Z,11.99
2017-10-05T07:21:58.127Z,11.98
2017-10-05T07:23:06.959Z,11.98
2017-10-05T07:24:15.789Z,11.98
2017-10-05T07:25:24.620Z,11.95
2017-10-05T07:26:33.458Z,12.01
2017-10-05T07:27:42.287Z,11.98
2017-10-05T07:28:51.122Z,11.95
2017-10-05T07:30:00.277Z,11.99
2017-10-05T07:31:09.111Z,12.02
2017-10-05T07:32:17.938Z,12.09
2017-10-05T07:33:26.771Z,12.12
2017-10-05T07:34:35.606Z,12.1
2017-10-05T07:35:44.766Z,12.07
2017-10-05T07:36:53.596Z,12.12
2017-10-05T07:38:02.420Z,12.01
2017-10-05T07:39:11.259Z,11.91
2017-10-05T07:40:20.094Z,11.96
2017-10-05T07:41:28.923Z,11.98
2017-10-05T07:42:37.752Z,11.96
2017-10-05T07:43:46.583Z,12.02
2017-10-05T07:44:55.412Z,11.94
2017-10-05T07:46:04.253Z,11.96
2017-10-05T07:47:13.089Z,12.05
2017-10-05T07:48:21.920Z,11.96
2017-10-05T07:49:30.758Z,12.02
2017-10-05T07:50:39.583Z,12.04
2017-10-05T07:51:48.411Z,11.96
2017-10-05T07:52:57.245Z,12.04
2017-10-05T07:54:06.072Z,12.16
2017-10-05T07:55:14.909Z,12.07
2017-10-05T07:56:23.744Z,12.09
2017-10-05T07:57:32.574Z,12.1
2017-10-05T07:58:41.406Z,12.12
2017-10-05T07:59:50.236Z,12.05
2017-10-05T08:00:59.395Z,12.13
2017-10-05T08:02:08.227Z,12.1
2017-10-05T08:03:17.062Z,12.19
2017-10-05T08:04:25.894Z,12.19
2017-10-05T08:05:34.723Z,12.21
2017-10-05T08:06:43.555Z,12.29
2017-10-05T08:07:52.385Z,12.23
2017-10-05T08:09:01.218Z,12.31
2017-10-05T08:10:10.048Z,12.31
2017-10-05T08:11:18.883Z,12.14
2017-10-05T08:12:27.713Z,12.24
2017-10-05T08:13:36.548Z,12.19
2017-10-05T08:14:45.373Z,12.2
2017-10-05T08:15:54.207Z,12.23
2017-10-05T08:17:03.037Z,12.21
2017-10-05T08:18:11.868Z,12.19
2017-10-05T08:19:20.699Z,12.1
2017-10-05T08:20:29.532Z,12.02
2017-10-05T08:21:38.362Z,11.99
2017-10-05T08:22:47.189Z,12.07
2017-10-05T08:23:56.025Z,12.04
2017-10-05T08:25:04.852Z,12.12
2017-10-05T08:26:13.688Z,12.13
2017-10-05T08:27:22.515Z,12.02
2017-10-05T08:28:31.345Z,12.07
2017-10-05T08:29:40.185Z,11.99
2017-10-05T08:30:49.019Z,12.09
2017-10-05T08:31:57.848Z,11.96
2017-10-05T08:33:06.680Z,12.05
2017-10-05T08:34:15.509Z,11.95
2017-10-05T08:35:24.336Z,11.99
2017-10-05T08:36:33.174Z,12.07
2017-10-05T08:37:42.008Z,12.04
2017-10-05T08:38:50.832Z,12.14
2017-10-05T08:39:59.662Z,12.12
2017-10-05T08:41:08.496Z,12.09
2017-10-05T08:42:17.331Z,12.09
2017-10-05T08:43:26.166Z,12.16
2017-10-05T08:44:34.995Z,12.2
2017-10-05T08:45:43.825Z,12.19
2017-10-05T08:46:52.656Z,12.21
2017-10-05T08:48:01.482Z,12.21
2017-10-05T08:49:10.314Z,12.34
2017-10-05T08:50:19.469Z,12.34
2017-10-05T08:51:28.303Z,12.32
2017-10-05T08:52:37.135Z,12.34
2017-10-05T08:53:45.962Z,12.38
2017-10-05T08:54:54.795Z,12.37
2017-10-05T08:56:03.623Z,12.32
2017-10-05T08:57:12.458Z,12.32
2017-10-05T08:58:21.295Z,12.31
2017-10-05T08:59:30.123Z,12.34
2017-10-05T09:00:38.952Z,12.32
2017-10-05T09:01:47.784Z,12.32
2017-10-05T09:02:56.614Z,12.38
2017-10-05T09:04:05.448Z,12.32
2017-10-05T09:05:14.601Z,12.32
2017-10-05T09:06:23.433Z,12.34
2017-10-05T09:07:32.260Z,12.35
2017-10-05T09:08:41.097Z,12.2
2017-10-05T09:09:49.923Z,12.29
2017-10-05T09:10:58.761Z,12.27
2017-10-05T09:12:07.589Z,12.2
2017-10-05T09:13:16.419Z,12.28
2017-10-05T09:14:25.570Z,12.23
2017-10-05T09:15:34.459Z,12.24
2017-10-05T09:16:43.241Z,12.34
2017-10-05T09:17:52.075Z,12.38
2017-10-05T09:19:00.911Z,12.34
2017-10-05T09:20:09.740Z,12.34
2017-10-05T09:21:18.575Z,12.31
2017-10-05T09:22:27.404Z,12.38
2017-10-05T09:23:36.234Z,12.42
2017-10-05T09:24:45.064Z,12.38
2017-10-05T09:25:53.899Z,12.38
2017-10-05T09:27:02.730Z,12.42
2017-10-05T09:28:11.556Z,12.39
2017-10-05T09:29:20.390Z,12.39
2017-10-05T09:30:29.220Z,12.46
2017-10-05T09:31:38.375Z,12.49
2017-10-05T09:32:47.204Z,12.45
2017-10-05T09:33:56.034Z,12.39
2017-10-05T09:35:04.867Z,12.42
2017-10-05T09:36:13.701Z,12.47
2017-10-05T09:37:22.537Z,12.47
2017-10-05T09:38:31.374Z,12.5
2017-10-05T09:39:40.205Z,12.46
2017-10-05T09:40:49.035Z,12.46
2017-10-05T09:41:57.865Z,12.42
2017-10-05T09:43:06.699Z,12.57
2017-10-05T09:44:15.533Z,12.47
2017-10-05T09:45:24.365Z,12.6
2017-10-05T09:46:33.201Z,12.54
2017-10-05T09:47:42.032Z,12.54
2017-10-05T09:48:50.863Z,12.59
2017-10-05T09:49:59.698Z,12.57
2017-10-05T09:51:08.528Z,12.53
2017-10-05T09:52:17.362Z,12.54
2017-10-05T09:53:26.190Z,12.57
2017-10-05T09:54:35.026Z,12.59
2017-10-05T09:55:43.853Z,12.47
2017-10-05T09:56:52.686Z,12.54
2017-10-05T09:58:01.523Z,12.56
2017-10-05T09:59:10.350Z,12.53
2017-10-05T10:00:19.205Z,12.5
2017-10-05T10:01:28.018Z,12.53
2017-10-05T10:02:36.847Z,12.52
2017-10-05T10:03:45.678Z,12.47
2017-10-05T10:04:54.510Z,12.47
2017-10-05T10:06:03.347Z,12.42
2017-10-05T10:07:12.171Z,12.41
2017-10-05T10:08:21.333Z,12.41
2017-10-05T10:09:30.484Z,12.46
2017-10-05T10:10:39.322Z,12.42
2017-10-05T10:11:48.152Z,12.39
2017-10-05T10:12:56.983Z,12.42
2017-10-05T10:14:05.812Z,12.42
2017-10-05T10:15:14.643Z,12.38
2017-10-05T10:16:23.471Z,12.41
2017-10-05T10:17:32.637Z,12.42
2017-10-05T10:18:41.475Z,12.41
2017-10-05T10:19:50.305Z,12.45
2017-10-05T10:20:59.457Z,12.39
2017-10-05T10:22:08.291Z,12.37
2017-10-05T10:23:17.118Z,12.38
2017-10-05T10:24:25.956Z,12.45
2017-10-05T10:25:34.786Z,12.41
2017-10-05T10:26:43.621Z,12.41
2017-10-05T10:27:52.453Z,12.42
2017-10-05T10:29:01.285Z,12.41
2017-10-05T10:30:10.116Z,12.38
2017-10-05T10:31:18.946Z,12.41
2017-10-05T10:32:27.777Z,12.42
2017-10-05T10:33:36.927Z,12.46
2017-10-05T10:34:45.762Z,12.34
2017-10-05T10:35:54.593Z,12.41
2017-10-05T10:37:03.752Z,12.38
2017-10-05T10:38:12.584Z,12.45
2017-10-05T10:39:21.415Z,12.42
2017-10-05T10:40:30.249Z,12.45
2017-10-05T10:41:39.077Z,12.42
2017-10-05T10:42:47.909Z,12.49
2017-10-05T10:43:56.744Z,12.54
2017-10-05T10:45:05.574Z,12.47
2017-10-05T10:46:14.404Z,12.53
2017-10-05T10:47:23.236Z,12.47
2017-10-05T10:48:32.070Z,12.46
2017-10-05T10:49:40.904Z,12.53
2017-10-05T10:50:49.735Z,12.47
2017-10-05T10:51:58.564Z,12.56
2017-10-05T10:53:07.395Z,12.47
2017-10-05T10:54:16.230Z,12.56
2017-10-05T10:55:25.392Z,12.54
2017-10-05T10:56:34.555Z,12.53
2017-10-05T10:57:43.386Z,12.5
2017-10-05T10:58:52.214Z,12.5
2017-10-05T11:00:01.046Z,12.56
2017-10-05T11:01:09.878Z,12.54
2017-10-05T11:02:18.708Z,12.56
2017-10-05T11:03:27.543Z,12.57
2017-10-05T11:04:36.375Z,12.52
2017-10-05T11:05:45.210Z,12.5
2017-10-05T11:06:54.038Z,12.54
2017-10-05T11:08:02.877Z,12.59
2017-10-05T11:09:11.701Z,12.53
2017-10-05T11:10:20.533Z,12.56
2017-10-05T11:11:29.362Z,12.6
2017-10-05T11:12:38.520Z,12.57
2017-10-05T11:13:47.348Z,12.5
2017-10-05T11:14:56.178Z,12.53
2017-10-05T11:16:05.010Z,12.53
2017-10-05T11:17:13.848Z,12.47
2017-10-05T11:18:22.680Z,12.54
2017-10-05T11:19:31.514Z,12.53
2017-10-05T11:20:40.339Z,12.54
2017-10-05T11:21:49.171Z,12.47
2017-10-05T11:22:57.997Z,12.5
2017-10-05T11:24:06.833Z,12.6
2017-10-05T11:25:15.670Z,12.54
2017-10-05T11:26:24.498Z,12.59
2017-10-05T11:27:33.326Z,12.6
2017-10-05T11:28:42.158Z,12.59
2017-10-05T11:29:50.993Z,12.57
2017-10-05T11:30:59.829Z,12.68
2017-10-05T11:32:08.671Z,12.71
2017-10-05T11:33:17.486Z,12.68
2017-10-05T11:34:26.317Z,12.68
2017-10-05T11:35:35.154Z,12.71
2017-10-05T11:36:43.981Z,12.7
2017-10-05T11:37:52.816Z,12.74
2017-10-05T11:39:01.643Z,12.68
2017-10-05T11:40:10.496Z,12.82
2017-10-05T11:41:19.300Z,12.74
2017-10-05T11:42:28.463Z,12.71
2017-10-05T11:43:37.297Z,12.68
2017-10-05T11:44:46.122Z,12.72
2017-10-05T11:45:54.953Z,12.72
2017-10-05T11:47:04.136Z,12.71
2017-10-05T11:48:12.965Z,12.7
2017-10-05T11:49:21.793Z,12.68
2017-10-05T11:50:30.622Z,12.71
2017-10-05T11:51:39.457Z,12.7
2017-10-05T11:52:48.290Z,12.7
2017-10-05T11:53:57.117Z,12.72
2017-10-05T11:55:05.955Z,12.71
2017-10-05T11:56:14.783Z,12.68
2017-10-05T11:57:23.618Z,12.74
2017-10-05T11:58:32.461Z,12.74
2017-10-05T11:59:41.293Z,12.79
2017-10-05T12:00:50.121Z,12.87
2017-10-05T12:01:58.954Z,12.9
2017-10-05T12:03:07.787Z,12.89
2017-10-05T12:04:16.615Z,12.96
2017-10-05T12:05:25.448Z,12.97
2017-10-05T12:06:34.279Z,12.96
2017-10-05T12:07:43.117Z,13.05
2017-10-05T12:08:51.953Z,13.12
2017-10-05T12:10:00.788Z,13.1
2017-10-05T12:11:09.616Z,13.15
2017-10-05T12:12:18.448Z,13.15
2017-10-05T12:13:27.282Z,13.22
2017-10-05T12:14:36.113Z,13.22
2017-10-05T12:15:44.951Z,13.2
2017-10-05T12:16:53.778Z,13.22
2017-10-05T12:18:02.608Z,13.2
2017-10-05T12:19:11.442Z,13.33
2017-10-05T12:20:20.275Z,13.29
2017-10-05T12:21:29.108Z,13.45
2017-10-05T12:22:37.937Z,13.38
2017-10-05T12:23:46.762Z,13.48
2017-10-05T12:24:55.596Z,13.48
2017-10-05T12:26:04.431Z,13.44
2017-10-05T12:27:13.268Z,13.42
2017-10-05T12:28:22.093Z,13.49
2017-10-05T12:29:30.930Z,13.51
2017-10-05T12:30:39.756Z,13.39
2017-10-05T12:31:48.591Z,13.51
2017-10-05T12:32:57.423Z,13.42
2017-10-05T12:34:06.260Z,13.38
2017-10-05T12:35:15.091Z,13.42
2017-10-05T12:36:23.924Z,13.39
2017-10-05T12:37:32.755Z,13.49
2017-10-05T12:38:41.591Z,13.39
2017-10-05T12:39:50.424Z,13.46
2017-10-05T12:40:59.256Z,13.45
2017-10-05T12:42:08.085Z,13.51
2017-10-05T12:43:16.920Z,13.49
2017-10-05T12:44:25.752Z,13.55
2017-10-05T12:45:34.586Z,13.57
2017-10-05T12:46:43.422Z,13.52
2017-10-05T12:47:52.255Z,13.63
2017-10-05T12:49:01.401Z,13.63
2017-10-05T12:50:10.237Z,13.59
2017-10-05T12:51:19.069Z,13.57
2017-10-05T12:52:27.897Z,13.69
2017-10-05T12:53:36.733Z,13.6
2017-10-05T12:54:45.566Z,13.64
2017-10-05T12:55:54.391Z,13.6
2017-10-05T12:57:03.225Z,13.66
2017-10-05T12:58:12.057Z,13.64
2017-10-05T12:59:20.894Z,13.7
2017-10-05T13:00:29.726Z,13.64
2017-10-05T13:01:38.878Z,13.71
2017-10-05T13:02:47.708Z,13.7
2017-10-05T13:03:56.867Z,13.73
2017-10-05T13:05:05.698Z,13.73
2017-10-05T13:06:14.528Z,13.67
2017-10-05T13:07:23.361Z,13.59
2017-10-05T13:08:32.196Z,13.62
2017-10-05T13:09:41.027Z,13.62
2017-10-05T13:10:49.864Z,13.54
2017-10-05T13:11:58.693Z,13.57
2017-10-05T13:13:07.845Z,13.51
2017-10-05T13:14:16.673Z,13.51
2017-10-05T13:15:25.508Z,13.46
2017-10-05T13:16:34.339Z,13.44
2017-10-05T13:17:43.173Z,13.41
2017-10-05T13:18:52.001Z,13.42
2017-10-05T13:20:00.834Z,13.46
2017-10-05T13:21:09.671Z,13.52
2017-10-05T13:22:18.505Z,13.48
2017-10-05T13:23:27.335Z,13.49
2017-10-05T13:24:36.167Z,13.51
2017-10-05T13:25:44.995Z,13.49
2017-10-05T13:26:53.828Z,13.57
2017-10-05T13:28:02.660Z,13.54
2017-10-05T13:29:11.499Z,13.6
2017-10-05T13:30:20.332Z,13.55
2017-10-05T13:31:29.161Z,13.52
2017-10-05T13:32:37.995Z,13.6
2017-10-05T13:33:46.832Z,13.54
2017-10-05T13:34:55.664Z,13.55
2017-10-05T13:36:04.493Z,13.69
2017-10-05T13:37:13.325Z,13.59
2017-10-05T13:38:22.153Z,13.6
2017-10-05T13:39:30.988Z,13.62
2017-10-05T13:40:39.824Z,13.59
2017-10-05T13:41:48.973Z,13.57
2017-10-05T13:42:57.816Z,13.7
2017-10-05T13:44:06.645Z,13.67
2017-10-05T13:45:15.482Z,13.71
2017-10-05T13:46:24.313Z,13.64
2017-10-05T13:47:33.140Z,13.7
2017-10-05T13:48:41.978Z,13.71
2017-10-05T13:49:50.806Z,13.63
2017-10-05T13:50:59.644Z,13.55
2017-10-05T13:52:08.474Z,13.6
2017-10-05T13:53:17.307Z,13.54
2017-10-05T13:54:26.135Z,13.62
2017-10-05T13:55:34.969Z,13.55
2017-10-05T13:56:43.800Z,13.54
2017-10-05T13:57:52.635Z,13.52
2017-10-05T13:59:01.469Z,13.48
2017-10-05T14:00:10.297Z,13.38
2017-10-05T14:01:19.131Z,13.41
2017-10-05T14:02:27.966Z,13.2
2017-10-05T14:03:36.796Z,13.14
2017-10-05T14:04:45.629Z,13.11
2017-10-05T14:05:54.457Z,12.93
2017-10-05T14:07:03.289Z,12.79
2017-10-05T14:08:12.117Z,12.71
2017-10-05T14:09:20.952Z,12.54
2017-10-05T14:10:29.786Z,12.54
2017-10-05T14:11:38.614Z,12.54
2017-10-05T14:12:47.448Z,12.52
2017-10-05T14:13:56.603Z,12.41
2017-10-05T14:15:05.435Z,12.38
2017-10-05T14:16:14.592Z,12.42
2017-10-05T14:17:23.424Z,12.34
2017-10-05T14:18:32.257Z,12.28
2017-10-05T14:19:41.089Z,12.23
2017-10-05T14:20:49.925Z,12.2
2017-10-05T14:21:58.753Z,12.21
2017-10-05T14:23:07.587Z,12.23
2017-10-05T14:24:16.421Z,12.21
2017-10-05T14:25:25.252Z,12.2
2017-10-05T14:26:34.087Z,12.21
2017-10-05T14:27:42.916Z,12.19
2017-10-05T14:28:51.746Z,12.13
2017-10-05T14:30:00.578Z,12.1
2017-10-05T14:31:09.413Z,12.12
2017-10-05T14:32:18.249Z,12.16
2017-10-05T14:33:27.081Z,12.13
2017-10-05T14:34:35.912Z,11.99
2017-10-05T14:35:44.740Z,11.96
2017-10-05T14:36:53.578Z,11.91
2017-10-05T14:38:02.408Z,11.96
2017-10-05T14:39:11.237Z,11.91
2017-10-05T14:40:20.069Z,11.91
2017-10-05T14:41:28.902Z,11.82
2017-10-05T14:42:37.735Z,11.83
2017-10-05T14:43:46.569Z,11.86
2017-10-05T14:44:55.723Z,11.83
2017-10-05T14:46:04.561Z,11.73
2017-10-05T14:47:13.390Z,11.73
2017-10-05T14:48:22.227Z,11.64
2017-10-05T14:49:31.061Z,11.61